Time;durP1;ratioP1;P1;durP2;ratioP2;P2;SDS_P1;SDS_P2;PMS_P1;PMS_P2;Temp;Humidity;BMP_temperature;BMP_pressure;BME280_temperature;BME280_humidity;BME280_pressure;Samples;Min_cycle;Max_cycle;Signal;HPM_P1;HPM_P2
2022/11/23 00:00:23;;;;;;;3.45;2.28;;;6.10;99.90;;;;;;5010728;28;20201;-65
2022/11/23 00:02:58;;;;;;;4.80;2.90;;;6.00;99.90;;;;;;5011008;28;20746;-65
2022/11/23 00:05:25;;;;;;;3.67;2.67;;;6.00;99.90;;;;;;5011125;28;20463;-65
2022/11/23 00:07:51;;;;;;;8.45;2.38;;;5.80;99.90;;;;;;5011083;28;20245;-66
2022/11/23 00:10:17;;;;;;;3.17;2.50;;;6.00;99.90;;;;;;5026380;28;20194;-67
2022/11/23 00:12:43;;;;;;;4.13;2.60;;;6.10;99.90;;;;;;5011189;28;21583;-67
2022/11/23 00:15:11;;;;;;;3.30;2.25;;;6.30;99.90;;;;;;5010681;28;20194;-69
2022/11/23 00:17:37;;;;;;;7.95;3.15;;;6.30;99.90;;;;;;5010941;28;20346;-67
2022/11/23 00:20:04;;;;;;;3.43;2.20;;;6.20;99.90;;;;;;5011307;28;20273;-67
2022/11/23 00:22:29;;;;;;;4.57;2.80;;;6.50;99.90;;;;;;5010098;28;20179;-67
2022/11/23 00:24:55;;;;;;;4.20;2.03;;;6.20;99.90;;;;;;5010340;28;20565;-67
2022/11/23 00:27:21;;;;;;;4.70;2.40;;;6.40;99.90;;;;;;5010667;28;20214;-67
2022/11/23 00:29:46;;;;;;;3.17;2.53;;;6.40;99.90;;;;;;5022800;28;20614;-67
2022/11/23 00:32:12;;;;;;;4.00;2.03;;;6.40;99.90;;;;;;5011139;28;20198;-67
2022/11/23 00:34:37;;;;;;;2.23;2.03;;;6.20;99.90;;;;;;5010354;28;20209;-67
2022/11/23 00:37:03;;;;;;;3.23;2.63;;;6.50;99.90;;;;;;5009460;28;20252;-66
2022/11/23 00:39:28;;;;;;;3.33;2.63;;;6.40;99.90;;;;;;5010907;28;20264;-66
2022/11/23 00:41:54;;;;;;;5.30;2.47;;;6.00;99.90;;;;;;5009652;28;20283;-66
2022/11/23 00:44:20;;;;;;;3.27;2.60;;;6.10;99.90;;;;;;5009497;28;20233;-65
2022/11/23 00:46:45;;;;;;;4.50;2.60;;;6.20;99.90;;;;;;5010246;28;20190;-65
2022/11/23 00:49:11;;;;;;;4.70;2.30;;;6.30;99.90;;;;;;5011186;28;20278;-66
2022/11/23 00:51:37;;;;;;;4.53;2.77;;;6.30;99.90;;;;;;5009700;28;20739;-66
2022/11/23 00:54:04;;;;;;;2.60;2.40;;;6.10;99.90;;;;;;5009797;28;20218;-66
2022/11/23 00:56:31;;;;;;;3.40;3.08;;;6.30;99.90;;;;;;5012046;28;20228;-66
2022/11/23 00:58:58;;;;;;;3.30;2.85;;;6.30;99.90;;;;;;5010035;28;20723;-67
2022/11/23 01:01:29;;;;;;;5.05;2.40;;;6.40;99.90;;;;;;5010027;28;20199;-67
2022/11/23 01:03:57;;;;;;;5.38;2.33;;;6.20;99.90;;;;;;5010893;28;20198;-67
2022/11/23 01:06:28;;;;;;;3.70;2.65;;;6.00;99.90;;;;;;5004994;28;20183;-67
2022/11/23 01:09:01;;;;;;;4.03;2.22;;;6.10;99.90;;;;;;5010691;28;20190;-67
2022/11/23 01:11:29;;;;;;;3.65;2.75;;;6.10;99.90;;;;;;5011538;28;20200;-67
2022/11/23 01:13:54;;;;;;;3.30;2.17;;;6.00;99.90;;;;;;5010825;28;20687;-67
2022/11/23 01:16:43;;;;;;;2.67;2.43;;;6.00;99.90;;;;;;5006894;28;20221;-67
2022/11/23 01:19:11;;;;;;;3.65;1.90;;;6.20;99.90;;;;;;5010267;28;20577;-68
2022/11/23 01:21:37;;;;;;;3.05;2.20;;;6.20;99.90;;;;;;5011825;28;20180;-67
2022/11/23 01:24:05;;;;;;;4.03;2.78;;;6.10;99.90;;;;;;5034580;28;20749;-67
2022/11/23 01:26:31;;;;;;;4.20;2.35;;;6.10;99.90;;;;;;5009025;28;20230;-67
2022/11/23 01:28:57;;;;;;;2.85;2.05;;;6.00;99.90;;;;;;5010703;28;20190;-67
2022/11/23 01:31:24;;;;;;;4.17;2.57;;;5.80;99.90;;;;;;5009830;28;20199;-67
2022/11/23 01:33:58;;;;;;;4.25;2.45;;;5.10;99.90;;;;;;5019664;28;20293;-67
2022/11/23 01:36:29;;;;;;;5.85;2.40;;;5.80;99.90;;;;;;5013696;28;20248;-67
2022/11/23 01:38:56;;;;;;;3.50;2.25;;;5.90;99.90;;;;;;5008910;28;20179;-67
2022/11/23 01:41:25;;;;;;;4.38;2.50;;;5.60;99.90;;;;;;5025805;28;20200;-67
2022/11/23 01:43:51;;;;;;;3.55;2.05;;;5.70;99.90;;;;;;5009378;28;20688;-67
2022/11/23 01:46:17;;;;;;;4.18;2.05;;;5.60;99.90;;;;;;5003794;28;20192;-67
2022/11/23 01:49:05;;;;;;;2.70;2.35;;;5.60;99.90;;;;;;5009723;28;20623;-67
2022/11/23 01:51:35;;;;;;;2.58;2.30;;;5.90;99.90;;;;;;5013010;28;20639;-66
2022/11/23 01:54:08;;;;;;;2.95;2.13;;;5.60;99.90;;;;;;5012022;28;20669;-67
2022/11/23 01:56:38;;;;;;;3.70;2.15;;;5.80;99.90;;;;;;5018812;28;20221;-67
2022/11/23 01:59:09;;;;;;;2.80;2.03;;;5.60;99.90;;;;;;5013085;28;20187;-67
2022/11/23 02:01:35;;;;;;;2.58;1.85;;;5.60;99.90;;;;;;5012802;28;20178;-67
2022/11/23 02:04:01;;;;;;;6.27;2.40;;;5.50;99.90;;;;;;5013538;28;20582;-67
2022/11/23 02:06:28;;;;;;;4.10;2.13;;;5.50;99.90;;;;;;5012479;28;20201;-67
2022/11/23 02:08:55;;;;;;;4.05;2.00;;;5.40;99.90;;;;;;5012440;28;20190;-64
2022/11/23 02:11:20;;;;;;;3.85;2.10;;;5.60;99.90;;;;;;5013701;28;20194;-65
2022/11/23 02:13:48;;;;;;;4.77;2.53;;;5.60;99.90;;;;;;5012759;28;20714;-67
2022/11/23 02:16:16;;;;;;;2.92;1.63;;;5.70;99.90;;;;;;5012735;28;20465;-67
2022/11/23 02:18:44;;;;;;;3.25;2.00;;;5.60;99.90;;;;;;5013613;28;20186;-67
2022/11/23 02:21:10;;;;;;;2.55;2.05;;;5.70;99.90;;;;;;5021145;28;20200;-67
2022/11/23 02:24:11;;;;;;;2.63;1.83;;;5.40;99.90;;;;;;5013200;28;20260;-66
2022/11/23 02:26:37;;;;;;;3.85;1.70;;;5.40;99.90;;;;;;5008246;28;20206;-67
2022/11/23 02:29:19;;;;;;;3.20;2.20;;;5.40;99.90;;;;;;5011315;28;20200;-67
2022/11/23 02:31:44;;;;;;;3.90;1.77;;;5.30;99.90;;;;;;5015282;28;20436;-67
2022/11/23 02:34:10;;;;;;;2.23;1.77;;;5.30;99.90;;;;;;5009599;28;20217;-67
2022/11/23 02:36:51;;;;;;;4.37;1.70;;;5.30;99.90;;;;;;5012337;28;20207;-67
2022/11/23 02:39:33;;;;;;;2.67;2.33;;;5.40;99.90;;;;;;5011571;28;20196;-67
2022/11/23 02:41:59;;;;;;;4.03;1.65;;;5.70;99.90;;;;;;5006897;28;20382;-67
2022/11/23 02:44:46;;;;;;;3.38;1.90;;;5.60;99.90;;;;;;5011850;28;20787;-67
2022/11/23 02:47:11;;;;;;;5.85;2.03;;;5.20;99.90;;;;;;5012700;28;20194;-64
2022/11/23 02:49:39;;;;;;;2.27;1.70;;;5.50;99.90;;;;;;5012379;28;20197;-67
2022/11/23 02:52:05;;;;;;;2.83;1.45;;;5.50;99.90;;;;;;5012685;28;20269;-67
2022/11/23 02:54:31;;;;;;;2.30;1.90;;;5.40;99.90;;;;;;5013677;28;20294;-65
2022/11/23 02:56:56;;;;;;;2.50;1.70;;;5.60;99.90;;;;;;5013274;28;20808;-67
2022/11/23 02:59:22;;;;;;;1.90;1.77;;;5.60;99.90;;;;;;5012148;28;20198;-67
2022/11/23 03:01:48;;;;;;;2.50;1.73;;;5.40;99.90;;;;;;5011707;28;20185;-67
2022/11/23 03:04:13;;;;;;;3.10;1.90;;;5.40;99.90;;;;;;5012092;28;20205;-67
2022/11/23 03:06:39;;;;;;;3.13;1.63;;;5.60;99.90;;;;;;5008539;28;20229;-67
2022/11/23 03:09:05;;;;;;;1.90;1.47;;;5.40;99.90;;;;;;5014572;28;20549;-65
2022/11/23 03:11:31;;;;;;;3.73;2.30;;;5.50;99.90;;;;;;5013459;28;20434;-64
2022/11/23 03:13:57;;;;;;;3.58;1.63;;;5.30;99.90;;;;;;5012862;28;20218;-66
2022/11/23 03:16:23;;;;;;;2.97;1.88;;;5.60;99.90;;;;;;5010896;28;20207;-66
2022/11/23 03:18:49;;;;;;;3.47;1.83;;;5.50;99.90;;;;;;5028114;28;20185;-66
2022/11/23 03:21:15;;;;;;;3.65;2.05;;;5.30;99.90;;;;;;5011178;28;20302;-66
2022/11/23 03:23:41;;;;;;;5.38;1.80;;;5.20;99.90;;;;;;5013514;28;20249;-67
2022/11/23 03:26:07;;;;;;;3.00;1.90;;;5.50;99.90;;;;;;5017849;28;20186;-67
2022/11/23 03:28:32;;;;;;;2.80;1.75;;;5.40;99.90;;;;;;5012804;28;20450;-67
2022/11/23 03:30:58;;;;;;;6.50;2.70;;;5.30;99.90;;;;;;5007029;28;20199;-66
2022/11/23 03:33:24;;;;;;;3.20;2.07;;;5.60;99.90;;;;;;5009919;28;20211;-66
2022/11/23 03:35:49;;;;;;;2.60;2.17;;;5.20;99.90;;;;;;5008596;28;20209;-67
2022/11/23 03:38:15;;;;;;;2.27;1.60;;;5.40;99.90;;;;;;5019317;28;20195;-67
2022/11/23 03:40:43;;;;;;;1.73;1.63;;;5.60;99.90;;;;;;5010957;28;20198;-66
2022/11/23 03:43:09;;;;;;;3.35;2.10;;;5.10;99.90;;;;;;5013126;28;20221;-66
2022/11/23 03:45:34;;;;;;;2.03;1.70;;;5.20;99.90;;;;;;5006285;28;20544;-66
2022/11/23 03:48:00;;;;;;;1.97;1.77;;;5.70;99.90;;;;;;5011685;28;20228;-66
2022/11/23 03:50:25;;;;;;;5.40;2.07;;;5.50;99.90;;;;;;5013715;28;20190;-66
2022/11/23 03:52:51;;;;;;;2.80;1.57;;;5.40;99.90;;;;;;5015240;28;20205;-66
2022/11/23 03:55:17;;;;;;;3.93;1.90;;;5.50;99.90;;;;;;5013288;28;20486;-66
2022/11/23 03:57:42;;;;;;;3.43;1.80;;;5.50;99.90;;;;;;5023914;28;20433;-66
2022/11/23 04:00:08;;;;;;;1.70;1.60;;;5.60;99.90;;;;;;5011536;28;20186;-66
2022/11/23 04:02:34;;;;;;;3.30;1.80;;;5.90;99.90;;;;;;5010235;28;20277;-65
2022/11/23 04:05:00;;;;;;;3.03;1.90;;;5.90;99.90;;;;;;5026477;28;20273;-67
2022/11/23 04:07:26;;;;;;;2.13;1.80;;;6.00;99.90;;;;;;5010615;28;20479;-65
2022/11/23 04:09:52;;;;;;;1.70;1.60;;;5.80;99.90;;;;;;5011619;28;20547;-67
2022/11/23 04:12:18;;;;;;;2.10;1.77;;;6.10;99.90;;;;;;5011455;28;20774;-65
2022/11/23 04:14:43;;;;;;;4.63;2.13;;;6.10;99.90;;;;;;5008369;28;20218;-66
2022/11/23 04:17:09;;;;;;;4.23;2.23;;;6.20;99.90;;;;;;5010946;28;20304;-66
2022/11/23 04:19:34;;;;;;;3.70;1.90;;;6.30;99.90;;;;;;5011401;28;20214;-68
2022/11/23 04:22:00;;;;;;;2.43;1.50;;;5.80;99.90;;;;;;5009885;28;20179;-65
2022/11/23 04:24:26;;;;;;;3.60;1.90;;;6.40;99.90;;;;;;5011186;28;20292;-66
2022/11/23 04:26:51;;;;;;;2.00;1.80;;;6.00;99.90;;;;;;5010724;28;20190;-65
2022/11/23 04:29:17;;;;;;;1.77;1.50;;;6.20;99.90;;;;;;5011118;28;20713;-65
2022/11/23 04:31:42;;;;;;;2.43;1.40;;;6.50;99.90;;;;;;5009815;28;20684;-66
2022/11/23 04:34:08;;;;;;;3.57;1.70;;;6.50;99.90;;;;;;5011094;28;20220;-66
2022/11/23 04:36:34;;;;;;;2.00;1.50;;;6.20;99.90;;;;;;5007986;28;20221;-66
2022/11/23 04:38:59;;;;;;;2.43;2.13;;;6.30;99.90;;;;;;5010173;28;20179;-65
2022/11/23 04:41:25;;;;;;;3.10;2.47;;;6.30;99.90;;;;;;5010097;28;20289;-65
2022/11/23 04:43:50;;;;;;;3.10;2.07;;;6.30;99.90;;;;;;5010657;28;20207;-65
2022/11/23 04:46:17;;;;;;;3.47;2.03;;;6.00;99.90;;;;;;5009933;28;20187;-66
2022/11/23 04:48:42;;;;;;;1.88;1.50;;;6.30;99.90;;;;;;5010670;28;20670;-67
2022/11/23 04:51:08;;;;;;;3.20;1.60;;;6.40;99.90;;;;;;5010209;28;20201;-67
2022/11/23 04:53:34;;;;;;;2.80;1.50;;;6.40;99.90;;;;;;5010327;28;20649;-67
2022/11/23 04:56:00;;;;;;;3.33;1.75;;;6.10;99.90;;;;;;5012307;28;20217;-67
2022/11/23 04:58:25;;;;;;;2.80;1.57;;;6.10;99.90;;;;;;5010610;28;20179;-67
2022/11/23 05:00:51;;;;;;;2.80;1.73;;;6.00;99.90;;;;;;5009862;28;20247;-66
2022/11/23 05:03:17;;;;;;;3.13;1.80;;;6.00;99.90;;;;;;5025550;28;20214;-67
2022/11/23 05:05:42;;;;;;;2.03;1.73;;;6.00;99.90;;;;;;5009490;28;20633;-67
2022/11/23 05:08:08;;;;;;;2.30;2.10;;;5.80;99.90;;;;;;5010399;28;20469;-67
2022/11/23 05:10:36;;;;;;;2.20;1.63;;;5.80;99.90;;;;;;5012229;28;20261;-67
2022/11/23 05:13:02;;;;;;;1.50;1.35;;;6.00;99.90;;;;;;5006863;28;20209;-67
2022/11/23 05:15:27;;;;;;;1.50;1.40;;;6.20;99.90;;;;;;5026009;28;20195;-67
2022/11/23 05:17:53;;;;;;;3.53;1.90;;;6.40;99.90;;;;;;5010120;28;20548;-67
2022/11/23 05:20:20;;;;;;;4.60;2.50;;;6.40;99.90;;;;;;5009520;28;20342;-66
2022/11/23 05:22:45;;;;;;;2.75;1.85;;;6.30;99.90;;;;;;5009954;28;20197;-67
2022/11/23 05:25:11;;;;;;;3.00;2.40;;;6.00;99.90;;;;;;5013073;28;20183;-67
2022/11/23 05:27:37;;;;;;;3.13;1.83;;;6.00;99.90;;;;;;5037205;28;20248;-67
2022/11/23 05:30:03;;;;;;;2.70;2.17;;;6.40;99.90;;;;;;5013791;28;20286;-66
2022/11/23 05:32:28;;;;;;;1.88;1.70;;;6.30;99.90;;;;;;5024415;28;20187;-66
2022/11/23 05:34:54;;;;;;;3.53;2.10;;;6.60;99.90;;;;;;5014423;28;20288;-66
2022/11/23 05:37:19;;;;;;;4.80;1.70;;;6.30;99.90;;;;;;5011739;28;20218;-66
2022/11/23 05:39:45;;;;;;;4.30;2.37;;;6.20;99.90;;;;;;5010539;28;20211;-65
2022/11/23 05:42:10;;;;;;;2.33;1.60;;;6.40;99.90;;;;;;5011654;28;20286;-66
2022/11/23 05:44:36;;;;;;;3.00;1.70;;;6.20;99.90;;;;;;5010873;28;20245;-66
2022/11/23 05:47:01;;;;;;;2.77;2.10;;;6.40;99.90;;;;;;5011717;28;20656;-66
2022/11/23 05:49:27;;;;;;;2.00;1.63;;;6.10;99.90;;;;;;5011214;28;20284;-66
2022/11/23 05:51:53;;;;;;;3.60;2.10;;;6.50;99.90;;;;;;5013155;28;20652;-65
2022/11/23 05:54:18;;;;;;;3.40;2.40;;;6.20;99.90;;;;;;5013209;28;20206;-66
2022/11/23 05:56:44;;;;;;;3.03;1.73;;;6.30;99.90;;;;;;5014182;28;20236;-66
2022/11/23 05:59:10;;;;;;;2.70;1.90;;;6.20;99.90;;;;;;5013911;28;20244;-65
2022/11/23 06:01:36;;;;;;;2.00;1.70;;;6.60;99.90;;;;;;5012417;28;20253;-66
2022/11/23 06:04:02;;;;;;;2.40;1.83;;;6.60;99.90;;;;;;5011043;28;20758;-66
2022/11/23 06:06:28;;;;;;;2.03;1.50;;;6.70;99.90;;;;;;5010361;28;20544;-66
2022/11/23 06:08:54;;;;;;;4.70;1.70;;;5.90;99.90;;;;;;5010302;28;20449;-66
2022/11/23 06:11:19;;;;;;;3.30;1.90;;;6.70;99.90;;;;;;5010529;28;20533;-66
2022/11/23 06:13:48;;;;;;;3.13;2.00;;;7.20;99.90;;;;;;5011008;28;20982;-66
2022/11/23 06:16:14;;;;;;;4.38;2.05;;;6.80;99.90;;;;;;5009438;28;20798;-66
2022/11/23 06:18:39;;;;;;;2.43;1.57;;;6.90;99.90;;;;;;5013948;28;20266;-66
2022/11/23 06:21:05;;;;;;;5.60;1.67;;;6.30;99.90;;;;;;5012345;28;20604;-66
2022/11/23 06:23:31;;;;;;;4.67;2.53;;;6.80;99.90;;;;;;5010991;28;20608;-66
2022/11/23 06:26:00;;;;;;;2.97;1.97;;;7.00;99.90;;;;;;5009740;28;20186;-67
2022/11/23 06:28:26;;;;;;;4.05;2.10;;;6.90;99.90;;;;;;5012310;28;20201;-66
2022/11/23 06:30:51;;;;;;;2.30;2.10;;;6.90;99.90;;;;;;5012543;28;20214;-66
2022/11/23 06:33:17;;;;;;;2.40;2.20;;;6.70;99.90;;;;;;5005673;28;20290;-66
2022/11/23 06:36:00;;;;;;;5.70;4.50;;;6.60;99.90;;;;;;5000660;28;20222;-63
2022/11/23 06:38:27;;;;;;;9.95;2.80;;;6.60;99.90;;;;;;5007893;28;20958;-64
2022/11/23 06:40:56;;;;;;;2.93;1.90;;;6.60;99.90;;;;;;5011018;28;20281;-64
2022/11/23 06:43:22;;;;;;;2.85;2.03;;;6.90;99.90;;;;;;5006814;28;20568;-62
2022/11/23 06:45:47;;;;;;;2.83;2.53;;;6.40;99.90;;;;;;5006970;28;20294;-63
2022/11/23 06:48:13;;;;;;;3.30;2.43;;;6.50;99.90;;;;;;5014203;28;20220;-64
2022/11/23 06:50:39;;;;;;;2.93;2.33;;;5.70;99.90;;;;;;5006433;28;20189;-64
2022/11/23 06:53:05;;;;;;;3.20;2.50;;;6.20;99.90;;;;;;5013394;28;20260;-68
2022/11/23 06:55:30;;;;;;;4.65;4.05;;;6.10;99.90;;;;;;5008971;28;20190;-69
2022/11/23 06:57:57;;;;;;;2.33;2.00;;;5.90;99.90;;;;;;5018543;28;20365;-67
2022/11/23 07:00:23;;;;;;;4.18;2.40;;;6.10;99.90;;;;;;5009893;28;20214;-65
2022/11/23 07:02:53;;;;;;;4.80;1.83;;;6.00;99.90;;;;;;5004121;28;20358;-67
2022/11/23 07:05:19;;;;;;;5.53;3.22;;;5.40;99.90;;;;;;5007163;28;20190;-67
2022/11/23 07:07:44;;;;;;;5.80;2.70;;;5.20;99.90;;;;;;5006900;28;20189;-67
2022/11/23 07:10:11;;;;;;;3.30;2.30;;;5.90;99.90;;;;;;5013290;28;20442;-66
2022/11/23 07:12:36;;;;;;;5.90;2.60;;;6.70;99.90;;;;;;5002257;28;20562;-65
2022/11/23 07:15:02;;;;;;;4.00;2.43;;;5.20;99.90;;;;;;5005675;28;20198;-68
2022/11/23 07:17:28;;;;;;;2.70;2.43;;;5.80;99.90;;;;;;5011454;28;20268;-66
2022/11/23 07:19:53;;;;;;;4.47;2.53;;;5.80;99.90;;;;;;5009981;28;20457;-67
2022/11/23 07:22:19;;;;;;;6.37;2.60;;;5.80;99.90;;;;;;5005225;28;20215;-65
2022/11/23 07:24:44;;;;;;;3.80;2.40;;;5.90;99.90;;;;;;5010603;28;20197;-64
2022/11/23 07:27:10;;;;;;;3.13;2.20;;;6.00;99.90;;;;;;4999877;28;20179;-67
2022/11/23 07:29:39;;;;;;;4.70;2.70;;;5.50;99.90;;;;;;5007557;28;20186;-64
2022/11/23 07:32:07;;;;;;;4.35;2.15;;;6.10;99.90;;;;;;5006000;28;20179;-65
2022/11/23 07:34:33;;;;;;;6.43;2.80;;;5.70;99.90;;;;;;5008948;28;20198;-64
2022/11/23 07:36:58;;;;;;;2.93;2.30;;;5.80;99.90;;;;;;5009506;28;20566;-66
2022/11/23 07:39:24;;;;;;;4.43;2.70;;;5.80;99.90;;;;;;5009452;28;20233;-66
2022/11/23 07:41:49;;;;;;;3.73;2.47;;;5.90;99.90;;;;;;5006485;28;20208;-66
2022/11/23 07:44:15;;;;;;;4.40;2.87;;;5.70;99.90;;;;;;5006564;28;20301;-65
2022/11/23 07:46:41;;;;;;;3.57;2.60;;;5.90;99.90;;;;;;5009294;28;20182;-64
2022/11/23 07:49:06;;;;;;;11.50;2.73;;;5.90;99.90;;;;;;5006008;28;20195;-65
2022/11/23 07:51:32;;;;;;;5.57;2.47;;;6.00;99.90;;;;;;5007870;28;20187;-65
2022/11/23 07:53:58;;;;;;;7.10;2.47;;;5.80;99.90;;;;;;5008364;28;20261;-66
2022/11/23 07:56:24;;;;;;;5.30;2.90;;;6.40;99.90;;;;;;5022763;28;20213;-64
2022/11/23 07:58:50;;;;;;;9.13;2.70;;;5.80;99.90;;;;;;5008215;28;20251;-65
2022/11/23 08:01:21;;;;;;;5.07;2.53;;;5.90;99.90;;;;;;5004113;28;20761;-66
2022/11/23 08:03:47;;;;;;;6.25;3.20;;;6.10;99.90;;;;;;5009017;28;20237;-65
2022/11/23 08:06:14;;;;;;;3.40;2.38;;;6.00;99.90;;;;;;5005327;28;20201;-64
2022/11/23 08:08:41;;;;;;;3.58;2.60;;;6.60;99.90;;;;;;5009614;28;20185;-66
2022/11/23 08:11:08;;;;;;;7.53;3.40;;;6.40;99.90;;;;;;5008863;28;20548;-68
2022/11/23 08:13:34;;;;;;;4.07;2.38;;;6.30;99.90;;;;;;5006307;28;20207;-66
2022/11/23 08:16:00;;;;;;;4.88;2.95;;;6.70;99.90;;;;;;5007050;28;20211;-66
2022/11/23 08:18:26;;;;;;;5.93;2.50;;;6.80;99.90;;;;;;5007473;28;20178;-69
2022/11/23 08:20:53;;;;;;;4.87;2.53;;;6.80;99.90;;;;;;5010599;28;20182;-70
2022/11/23 08:23:19;;;;;;;4.72;2.85;;;6.60;99.90;;;;;;5009677;28;20552;-70
2022/11/23 08:25:45;;;;;;;6.47;3.00;;;7.00;99.90;;;;;;5007511;28;20740;-69
2022/11/23 08:28:12;;;;;;;3.65;2.00;;;6.90;99.90;;;;;;5009120;28;20194;-66
2022/11/23 08:30:37;;;;;;;3.80;2.13;;;7.00;99.90;;;;;;5005074;28;20195;-67
2022/11/23 08:33:05;;;;;;;2.22;2.00;;;7.10;99.90;;;;;;5000721;28;20241;-65
2022/11/23 08:35:33;;;;;;;3.47;2.20;;;7.30;99.90;;;;;;5009177;28;20214;-69
2022/11/23 08:37:59;;;;;;;5.15;2.35;;;7.10;99.90;;;;;;5010408;28;20227;-68
2022/11/23 08:40:25;;;;;;;4.90;2.50;;;7.20;99.90;;;;;;5008175;28;20183;-70
2022/11/23 08:42:50;;;;;;;2.40;2.17;;;7.20;99.90;;;;;;5008943;28;20215;-69
2022/11/23 08:45:16;;;;;;;3.70;2.80;;;7.40;99.90;;;;;;5006178;28;20190;-65
2022/11/23 08:47:42;;;;;;;4.85;2.58;;;7.80;99.90;;;;;;5025431;28;20191;-66
2022/11/23 08:50:08;;;;;;;2.80;1.93;;;7.60;99.90;;;;;;5006759;28;20213;-66
2022/11/23 08:52:34;;;;;;;7.07;2.38;;;7.60;99.90;;;;;;5005574;28;20550;-65
2022/11/23 08:55:00;;;;;;;12.23;5.60;;;7.90;99.90;;;;;;5009665;28;20190;-66
2022/11/23 08:57:26;;;;;;;6.47;2.80;;;7.70;99.90;;;;;;5008662;28;20214;-65
2022/11/23 08:59:52;;;;;;;5.20;2.80;;;7.90;99.90;;;;;;5010363;28;20193;-64
2022/11/23 09:02:18;;;;;;;5.27;3.57;;;8.10;99.90;;;;;;5006005;28;20277;-66
2022/11/23 09:04:44;;;;;;;5.50;2.88;;;8.30;99.90;;;;;;5025812;28;20684;-66
2022/11/23 09:07:10;;;;;;;5.07;2.63;;;8.30;99.90;;;;;;5003307;28;20194;-66
2022/11/23 09:09:36;;;;;;;3.97;2.20;;;8.90;99.90;;;;;;5007329;28;20183;-65
2022/11/23 09:12:01;;;;;;;3.40;2.20;;;8.90;99.90;;;;;;5023727;28;20258;-68
2022/11/23 09:14:27;;;;;;;4.77;2.20;;;8.90;99.90;;;;;;5001659;28;20210;-66
2022/11/23 09:16:54;;;;;;;3.43;2.17;;;8.90;99.90;;;;;;5007953;28;20669;-65
2022/11/23 09:19:21;;;;;;;4.90;1.98;;;8.90;99.90;;;;;;5007911;28;20459;-64
2022/11/23 09:21:47;;;;;;;3.85;1.98;;;9.00;99.90;;;;;;5008142;28;20194;-64
2022/11/23 09:24:13;;;;;;;5.10;1.80;;;9.30;99.90;;;;;;5008450;28;20207;-65
2022/11/23 09:26:39;;;;;;;4.60;2.50;;;9.50;99.90;;;;;;5001861;28;20184;-65
2022/11/23 09:29:07;;;;;;;5.57;2.67;;;9.50;99.90;;;;;;5006898;28;20190;-66
2022/11/23 09:31:33;;;;;;;2.30;2.03;;;9.90;99.90;;;;;;5005941;28;20190;-67
2022/11/23 09:33:58;;;;;;;3.00;1.90;;;10.10;99.50;;;;;;5007948;28;20204;-67
2022/11/23 09:36:24;;;;;;;4.27;1.90;;;9.80;99.50;;;;;;5003552;28;20211;-67
2022/11/23 09:38:51;;;;;;;3.95;2.00;;;10.20;98.80;;;;;;5006553;28;20188;-65
2022/11/23 09:41:40;;;;;;;2.25;1.88;;;10.40;97.70;;;;;;5011099;28;20557;-67
2022/11/23 09:44:36;;;;;;;4.15;2.20;;;10.70;97.30;;;;;;5008294;28;20501;-66
2022/11/23 09:47:23;;;;;;;1.58;1.30;;;10.70;97.00;;;;;;5002036;28;20259;-65
2022/11/23 09:50:10;;;;;;;11.15;2.50;;;10.90;97.10;;;;;;5010745;28;20526;-65
2022/11/23 09:52:39;;;;;;;3.17;1.90;;;11.20;96.70;;;;;;5007738;28;20199;-66
2022/11/23 09:55:35;;;;;;;4.65;1.90;;;11.20;95.90;;;;;;5006094;28;20190;-67
2022/11/23 09:58:04;;;;;;;3.95;2.00;;;11.10;95.70;;;;;;5002308;28;20243;-66
2022/11/23 10:00:36;;;;;;;4.50;2.20;;;11.20;95.40;;;;;;5005440;28;20679;-66
2022/11/23 10:03:03;;;;;;;5.32;3.10;;;11.20;95.10;;;;;;5004881;28;20209;-65
2022/11/23 10:05:36;;;;;;;4.40;2.53;;;10.90;95.20;;;;;;5006071;28;20191;-67
2022/11/23 10:08:44;;;;;;;1.98;1.65;;;11.10;95.60;;;;;;5009360;28;20196;-63
2022/11/23 10:11:36;;;;;;;6.20;2.00;;;11.20;95.60;;;;;;5004118;28;20181;-64
2022/11/23 10:14:39;;;;;;;3.45;1.80;;;11.60;95.40;;;;;;5012896;28;20267;-64
2022/11/23 10:17:21;;;;;;;2.10;1.52;;;12.30;93.60;;;;;;5007763;28;20207;-64
2022/11/23 10:19:58;;;;;;;2.80;1.60;;;12.70;92.10;;;;;;5009194;28;20262;-64
2022/11/23 10:22:34;;;;;;;5.30;1.60;;;13.20;90.80;;;;;;5023075;28;20261;-64
2022/11/23 10:25:09;;;;;;;3.35;2.10;;;13.60;90.10;;;;;;5014699;28;20187;-63
2022/11/23 10:27:35;;;;;;;4.75;2.42;;;14.20;87.20;;;;;;5010799;28;20187;-65
2022/11/23 10:30:01;;;;;;;1.67;1.37;;;14.60;85.40;;;;;;5008311;28;20185;-65
2022/11/23 10:32:43;;;;;;;2.57;1.30;;;14.90;83.00;;;;;;5014015;28;20186;-66
2022/11/23 10:35:13;;;;;;;10.90;5.97;;;15.80;80.70;;;;;;5009702;28;20636;-68
2022/11/23 10:37:40;;;;;;;4.85;1.90;;;16.20;79.20;;;;;;5009414;28;20668;-68
2022/11/23 10:40:14;;;;;;;2.15;1.55;;;17.00;77.30;;;;;;5012134;28;20179;-67
2022/11/23 10:42:55;;;;;;;2.20;1.40;;;17.60;72.60;;;;;;5009390;28;20220;-67
2022/11/23 10:45:26;;;;;;;4.90;1.80;;;17.90;70.10;;;;;;5008515;28;20218;-66
2022/11/23 10:47:58;;;;;;;2.63;1.80;;;18.10;69.70;;;;;;5009422;28;20183;-67
2022/11/23 10:50:28;;;;;;;1.85;1.75;;;17.30;70.00;;;;;;5008337;28;20299;-66
2022/11/23 10:53:11;;;;;;;4.15;1.92;;;16.60;71.70;;;;;;5011871;28;20915;-63
2022/11/23 10:55:52;;;;;;;3.08;1.80;;;16.60;72.30;;;;;;5009748;28;20198;-62
2022/11/23 10:58:44;;;;;;;3.17;2.10;;;16.20;73.30;;;;;;5007306;28;20183;-63
2022/11/23 11:01:17;;;;;;;4.82;2.15;;;15.90;75.00;;;;;;5008654;28;20219;-65
2022/11/23 11:03:43;;;;;;;2.67;1.55;;;15.80;76.10;;;;;;5008976;28;20206;-70
2022/11/23 11:06:09;;;;;;;2.40;1.80;;;15.40;77.30;;;;;;5008039;28;20186;-70
2022/11/23 11:08:47;;;;;;;3.43;1.60;;;15.00;77.60;;;;;;4997925;28;20446;-69
2022/11/23 11:11:24;;;;;;;2.58;1.83;;;14.60;78.80;;;;;;5016949;28;20194;-69
2022/11/23 11:13:49;;;;;;;2.58;2.00;;;14.70;78.80;;;;;;5010670;28;20251;-69
2022/11/23 11:16:29;;;;;;;5.77;2.27;;;14.80;79.00;;;;;;5011816;28;20351;-69
2022/11/23 11:18:55;;;;;;;4.30;2.60;;;14.70;79.60;;;;;;5009577;28;20179;-69
2022/11/23 11:21:39;;;;;;;3.72;1.65;;;14.90;80.30;;;;;;5006635;28;20193;-67
2022/11/23 11:24:42;;;;;;;2.67;1.63;;;15.20;76.90;;;;;;5007860;28;20369;-65
2022/11/23 11:27:19;;;;;;;3.70;2.17;;;14.70;76.20;;;;;;5009861;28;20203;-66
2022/11/23 11:29:44;;;;;;;3.67;2.70;;;14.30;77.60;;;;;;5007219;28;20620;-67
2022/11/23 11:32:41;;;;;;;3.30;1.57;;;13.70;78.30;;;;;;5011106;28;20274;-67
2022/11/23 11:35:16;;;;;;;3.25;1.83;;;13.50;80.70;;;;;;5009194;28;20552;-69
2022/11/23 11:37:44;;;;;;;3.00;2.00;;;13.20;82.90;;;;;;5009905;28;20214;-66
2022/11/23 11:40:32;;;;;;;2.67;1.65;;;12.70;84.00;;;;;;5002800;28;20179;-66
2022/11/23 11:43:06;;;;;;;2.80;2.60;;;12.70;81.20;;;;;;5011149;28;20241;-65
2022/11/23 11:45:37;;;;;;;4.97;2.00;;;12.60;82.50;;;;;;5010996;28;20182;-65
2022/11/23 11:48:08;;;;;;;3.85;2.30;;;12.50;82.20;;;;;;5014196;28;20186;-65
2022/11/23 11:50:50;;;;;;;2.28;2.00;;;12.30;83.70;;;;;;5012031;28;20194;-65
2022/11/23 11:53:31;;;;;;;3.88;2.40;;;12.30;84.70;;;;;;5011855;28;20327;-65
2022/11/23 11:56:22;;;;;;;3.50;1.58;;;12.30;85.20;;;;;;5010286;28;20728;-65
2022/11/23 11:59:04;;;;;;;2.15;1.70;;;12.10;83.40;;;;;;5013516;28;20212;-64
2022/11/23 12:01:43;;;;;;;2.72;1.40;;;12.30;85.70;;;;;;5014809;28;21143;-64
2022/11/23 12:04:16;;;;;;;3.53;1.60;;;12.30;83.70;;;;;;5014088;28;20235;-65
2022/11/23 12:07:03;;;;;;;2.08;1.60;;;11.90;83.50;;;;;;5022046;28;20200;-65
2022/11/23 12:09:35;;;;;;;2.20;1.80;;;11.90;83.90;;;;;;5017987;28;20189;-65
2022/11/23 12:12:03;;;;;;;2.55;1.65;;;11.90;84.30;;;;;;5025252;28;20286;-65
2022/11/23 12:14:28;;;;;;;1.70;1.60;;;12.20;84.60;;;;;;5011497;28;20757;-67
2022/11/23 12:17:07;;;;;;;2.37;1.70;;;12.20;83.80;;;;;;5009826;28;20312;-68
2022/11/23 12:19:36;;;;;;;3.75;1.65;;;12.20;84.90;;;;;;5007289;28;20201;-68
2022/11/23 12:22:26;;;;;;;1.48;1.30;;;12.10;84.40;;;;;;5008158;28;20278;-67
2022/11/23 12:25:16;;;;;;;1.88;1.23;;;12.00;83.40;;;;;;5009593;28;20850;-64
2022/11/23 12:28:19;;;;;;;1.80;1.40;;;12.00;82.20;;;;;;5005765;28;20189;-64
2022/11/23 12:31:12;;;;;;;3.00;1.70;;;12.00;82.80;;;;;;5006976;28;20308;-64
2022/11/23 12:33:59;;;;;;;1.50;1.00;;;12.10;83.80;;;;;;5012889;28;20214;-65
2022/11/23 12:37:07;;;;;;;1.63;1.08;;;12.00;84.50;;;;;;5005392;28;20673;-66
2022/11/23 12:40:10;;;;;;;2.40;2.13;;;11.90;82.50;;;;;;4983794;28;20191;-64
2022/11/23 12:42:52;;;;;;;1.80;1.00;;;11.90;82.10;;;;;;5008875;28;20200;-63
2022/11/23 12:45:31;;;;;;;1.27;1.10;;;11.90;82.70;;;;;;5004670;28;20211;-64
2022/11/23 12:48:34;;;;;;;1.50;1.40;;;11.80;83.30;;;;;;5009031;28;20618;-64
2022/11/23 12:51:33;;;;;;;2.10;1.00;;;11.70;84.20;;;;;;5007932;28;20220;-65
2022/11/23 12:54:17;;;;;;;2.38;1.10;;;11.60;84.20;;;;;;5008868;28;20292;-64
2022/11/23 12:56:57;;;;;;;1.55;1.10;;;11.70;84.00;;;;;;5008154;28;20288;-65
2022/11/23 12:59:25;;;;;;;0.90;0.90;;;11.50;83.40;;;;;;5008722;28;20189;-66
2022/11/23 13:02:00;;;;;;;1.40;0.93;;;11.90;83.10;;;;;;5006095;28;20181;-66
2022/11/23 13:04:31;;;;;;;1.95;1.20;;;11.60;84.10;;;;;;5009348;28;20254;-68
2022/11/23 13:07:35;;;;;;;1.50;1.38;;;11.70;85.30;;;;;;5006850;28;20193;-68
2022/11/23 13:10:11;;;;;;;2.35;0.85;;;11.80;86.20;;;;;;5010035;28;20190;-66